sensor_id;sensor_type;location;lat;lon;timestamp;pressure;altitude;pressure_sealevel;temperature;humidity
50672;BME280;46021;55.882;37.654;2023-04-22T00:00:20;99045.16;;;6.93;47.82
50672;BME280;46021;55.882;37.654;2023-04-22T00:02:48;99045.22;;;6.90;47.86
50672;BME280;46021;55.882;37.654;2023-04-22T00:05:15;99039.28;;;6.86;48.12
50672;BME280;46021;55.882;37.654;2023-04-22T00:07:43;99052.34;;;6.83;47.84
50672;BME280;46021;55.882;37.654;2023-04-22T00:10:10;99036.00;;;6.81;47.71
50672;BME280;46021;55.882;37.654;2023-04-22T00:12:37;99037.78;;;6.79;48.15
50672;BME280;46021;55.882;37.654;2023-04-22T00:15:06;99046.34;;;6.81;48.28
50672;BME280;46021;55.882;37.654;2023-04-22T00:17:33;99049.00;;;6.78;48.22
50672;BME280;46021;55.882;37.654;2023-04-22T00:20:02;99048.25;;;6.74;48.04
50672;BME280;46021;55.882;37.654;2023-04-22T00:22:30;99054.31;;;6.73;48.63
50672;BME280;46021;55.882;37.654;2023-04-22T00:24:57;99053.44;;;6.73;48.21
50672;BME280;46021;55.882;37.654;2023-04-22T00:27:24;99051.81;;;6.70;48.92
50672;BME280;46021;55.882;37.654;2023-04-22T00:29:52;99052.81;;;6.64;48.59
50672;BME280;46021;55.882;37.654;2023-04-22T00:32:19;99058.84;;;6.65;47.72
50672;BME280;46021;55.882;37.654;2023-04-22T00:34:47;99049.44;;;6.61;48.37
50672;BME280;46021;55.882;37.654;2023-04-22T00:37:16;99058.19;;;6.57;48.13
50672;BME280;46021;55.882;37.654;2023-04-22T00:39:43;99060.03;;;6.52;48.45
50672;BME280;46021;55.882;37.654;2023-04-22T00:42:12;99053.28;;;6.46;47.92
50672;BME280;46021;55.882;37.654;2023-04-22T00:44:39;99050.84;;;6.40;48.70
50672;BME280;46021;55.882;37.654;2023-04-22T00:47:07;99056.19;;;6.34;48.16
50672;BME280;46021;55.882;37.654;2023-04-22T00:49:35;99050.31;;;6.25;48.53
50672;BME280;46021;55.882;37.654;2023-04-22T00:52:02;99053.06;;;6.19;48.33
50672;BME280;46021;55.882;37.654;2023-04-22T00:54:33;99053.16;;;6.16;48.70
50672;BME280;46021;55.882;37.654;2023-04-22T00:57:02;99051.59;;;6.09;49.02
50672;BME280;46021;55.882;37.654;2023-04-22T00:59:29;99047.41;;;6.05;48.10
50672;BME280;46021;55.882;37.654;2023-04-22T01:01:56;99048.44;;;5.95;48.96
50672;BME280;46021;55.882;37.654;2023-04-22T01:04:24;99049.34;;;5.94;48.01
50672;BME280;46021;55.882;37.654;2023-04-22T01:06:51;99046.06;;;5.85;48.06
50672;BME280;46021;55.882;37.654;2023-04-22T01:09:19;99053.03;;;5.82;49.69
50672;BME280;46021;55.882;37.654;2023-04-22T01:11:48;99053.13;;;5.79;48.66
50672;BME280;46021;55.882;37.654;2023-04-22T01:14:15;99060.97;;;5.74;49.01
50672;BME280;46021;55.882;37.654;2023-04-22T01:16:42;99037.03;;;5.66;49.23
50672;BME280;46021;55.882;37.654;2023-04-22T01:19:10;99048.25;;;5.65;48.91
50672;BME280;46021;55.882;37.654;2023-04-22T01:21:38;99048.34;;;5.62;49.26
50672;BME280;46021;55.882;37.654;2023-04-22T01:24:07;99044.13;;;5.58;50.32
50672;BME280;46021;55.882;37.654;2023-04-22T01:26:35;99042.47;;;5.54;49.77
50672;BME280;46021;55.882;37.654;2023-04-22T01:29:04;99046.00;;;5.50;50.62
50672;BME280;46021;55.882;37.654;2023-04-22T01:31:32;99045.22;;;5.46;50.25
50672;BME280;46021;55.882;37.654;2023-04-22T01:34:00;99047.00;;;5.42;50.25
50672;BME280;46021;55.882;37.654;2023-04-22T01:36:27;99036.75;;;5.39;49.85
50672;BME280;46021;55.882;37.654;2023-04-22T01:38:55;99037.72;;;5.35;50.83
50672;BME280;46021;55.882;37.654;2023-04-22T01:41:27;99039.47;;;5.33;51.42
50672;BME280;46021;55.882;37.654;2023-04-22T01:43:56;99042.97;;;5.29;50.35
50672;BME280;46021;55.882;37.654;2023-04-22T01:46:24;99047.41;;;5.24;51.42
50672;BME280;46021;55.882;37.654;2023-04-22T01:48:51;99045.72;;;5.21;50.92
50672;BME280;46021;55.882;37.654;2023-04-22T01:51:20;99044.94;;;5.18;51.76
50672;BME280;46021;55.882;37.654;2023-04-22T01:53:49;99033.88;;;5.11;51.86
50672;BME280;46021;55.882;37.654;2023-04-22T01:56:16;99045.97;;;5.11;51.92
50672;BME280;46021;55.882;37.654;2023-04-22T01:58:45;99042.59;;;5.05;51.27
50672;BME280;46021;55.882;37.654;2023-04-22T02:01:13;99045.22;;;5.04;52.54
50672;BME280;46021;55.882;37.654;2023-04-22T02:03:40;99042.66;;;5.02;52.61
50672;BME280;46021;55.882;37.654;2023-04-22T02:06:09;99042.75;;;4.99;52.80
50672;BME280;46021;55.882;37.654;2023-04-22T02:08:36;99047.00;;;5.00;51.37
50672;BME280;46021;55.882;37.654;2023-04-22T02:11:04;99047.91;;;4.99;51.55
50672;BME280;46021;55.882;37.654;2023-04-22T02:13:35;99035.88;;;4.97;52.98
50672;BME280;46021;55.882;37.654;2023-04-22T02:16:05;99045.38;;;4.96;52.57
50672;BME280;46021;55.882;37.654;2023-04-22T02:18:33;99044.50;;;4.97;51.61
50672;BME280;46021;55.882;37.654;2023-04-22T02:21:00;99037.59;;;4.98;52.73
50672;BME280;46021;55.882;37.654;2023-04-22T02:23:27;99036.75;;;4.97;51.17
50672;BME280;46021;55.882;37.654;2023-04-22T02:25:55;99038.44;;;4.98;53.47
50672;BME280;46021;55.882;37.654;2023-04-22T02:28:22;99035.84;;;4.98;52.53
50672;BME280;46021;55.882;37.654;2023-04-22T02:30:49;99040.81;;;5.09;52.75
50672;BME280;46021;55.882;37.654;2023-04-22T02:33:17;99042.09;;;5.32;53.23
50672;BME280;46021;55.882;37.654;2023-04-22T02:35:45;99048.47;;;5.56;53.58
50672;BME280;46021;55.882;37.654;2023-04-22T02:38:17;99049.66;;;5.80;53.41
50672;BME280;46021;55.882;37.654;2023-04-22T02:40:44;99050.19;;;5.96;52.78
50672;BME280;46021;55.882;37.654;2023-04-22T02:43:11;99043.03;;;6.07;53.35
50672;BME280;46021;55.882;37.654;2023-04-22T02:45:39;99044.53;;;6.16;53.06
50672;BME280;46021;55.882;37.654;2023-04-22T02:48:07;99045.34;;;6.18;53.36
50672;BME280;46021;55.882;37.654;2023-04-22T02:50:36;99044.22;;;6.30;53.02
50672;BME280;46021;55.882;37.654;2023-04-22T02:53:03;99044.72;;;6.42;52.92
50672;BME280;46021;55.882;37.654;2023-04-22T02:55:31;99052.16;;;6.56;52.73
50672;BME280;46021;55.882;37.654;2023-04-22T02:57:58;99047.56;;;6.68;52.65
50672;BME280;46021;55.882;37.654;2023-04-22T03:00:25;99045.38;;;6.85;52.30
50672;BME280;46021;55.882;37.654;2023-04-22T03:02:52;99047.47;;;7.03;52.11
50672;BME280;46021;55.882;37.654;2023-04-22T03:05:24;99043.41;;;7.25;52.03
50672;BME280;46021;55.882;37.654;2023-04-22T03:07:53;99052.66;;;7.63;52.03
50672;BME280;46021;55.882;37.654;2023-04-22T03:10:20;99052.28;;;8.04;51.51
50672;BME280;46021;55.882;37.654;2023-04-22T03:12:49;99048.38;;;8.45;51.06
50672;BME280;46021;55.882;37.654;2023-04-22T03:15:18;99048.88;;;8.82;50.51
50672;BME280;46021;55.882;37.654;2023-04-22T03:17:45;99044.94;;;9.18;49.85
50672;BME280;46021;55.882;37.654;2023-04-22T03:20:14;99050.38;;;9.60;49.23
50672;BME280;46021;55.882;37.654;2023-04-22T03:22:41;99042.78;;;9.99;47.88
50672;BME280;46021;55.882;37.654;2023-04-22T03:25:11;99043.00;;;10.37;48.31
50672;BME280;46021;55.882;37.654;2023-04-22T03:27:44;99048.13;;;10.81;47.43
50672;BME280;46021;55.882;37.654;2023-04-22T03:30:11;99050.94;;;11.16;46.39
50672;BME280;46021;55.882;37.654;2023-04-22T03:32:38;99057.81;;;11.57;45.90
50672;BME280;46021;55.882;37.654;2023-04-22T03:35:16;99049.78;;;11.99;45.05
50672;BME280;46021;55.882;37.654;2023-04-22T03:37:46;99052.53;;;12.50;44.28
50672;BME280;46021;55.882;37.654;2023-04-22T03:40:19;99054.91;;;12.90;42.76
50672;BME280;46021;55.882;37.654;2023-04-22T03:42:47;99057.81;;;13.34;42.57
50672;BME280;46021;55.882;37.654;2023-04-22T03:45:17;99061.91;;;13.72;41.02
50672;BME280;46021;55.882;37.654;2023-04-22T03:47:49;99057.38;;;13.75;39.51
50672;BME280;46021;55.882;37.654;2023-04-22T03:50:21;99060.41;;;13.68;39.21
50672;BME280;46021;55.882;37.654;2023-04-22T03:52:51;99071.75;;;13.84;39.42
50672;BME280;46021;55.882;37.654;2023-04-22T03:55:21;99061.06;;;14.19;39.20
50672;BME280;46021;55.882;37.654;2023-04-22T03:57:51;99067.75;;;14.55;38.85
50672;BME280;46021;55.882;37.654;2023-04-22T04:00:19;99068.44;;;15.03;38.64
50672;BME280;46021;55.882;37.654;2023-04-22T04:02:53;99070.59;;;15.39;37.48
50672;BME280;46021;55.882;37.654;2023-04-22T04:05:24;99067.41;;;15.77;37.05
50672;BME280;46021;55.882;37.654;2023-04-22T04:07:51;99066.09;;;15.85;36.10
50672;BME280;46021;55.882;37.654;2023-04-22T04:10:20;99072.50;;;16.08;36.24
50672;BME280;46021;55.882;37.654;2023-04-22T04:12:49;99072.56;;;16.21;35.69
50672;BME280;46021;55.882;37.654;2023-04-22T04:15:16;99069.69;;;16.51;35.21
50672;BME280;46021;55.882;37.654;2023-04-22T04:17:46;99068.06;;;16.75;34.81
50672;BME280;46021;55.882;37.654;2023-04-22T04:20:15;99067.63;;;16.82;33.89
50672;BME280;46021;55.882;37.654;2023-04-22T04:22:43;99069.91;;;17.13;34.47
50672;BME280;46021;55.882;37.654;2023-04-22T04:25:11;99070.19;;;17.60;34.67
50672;BME280;46021;55.882;37.654;2023-04-22T04:27:44;99068.47;;;17.72;33.14
50672;BME280;46021;55.882;37.654;2023-04-22T04:30:13;99068.53;;;17.83;32.42
50672;BME280;46021;55.882;37.654;2023-04-22T04:32:53;99072.56;;;17.89;31.87
50672;BME280;46021;55.882;37.654;2023-04-22T04:35:21;99075.41;;;17.86;32.01
50672;BME280;46021;55.882;37.654;2023-04-22T04:37:54;99063.06;;;16.98;32.05
50672;BME280;46021;55.882;37.654;2023-04-22T04:40:22;99070.22;;;17.34;31.99
50672;BME280;46021;55.882;37.654;2023-04-22T04:43:07;99063.47;;;17.05;31.79
50672;BME280;46021;55.882;37.654;2023-04-22T04:45:45;99060.50;;;17.35;31.81
50672;BME280;46021;55.882;37.654;2023-04-22T04:48:14;99066.84;;;17.20;31.89
50672;BME280;46021;55.882;37.654;2023-04-22T04:50:48;99065.31;;;17.67;31.84
50672;BME280;46021;55.882;37.654;2023-04-22T04:53:20;99066.94;;;17.93;31.75
50672;BME280;46021;55.882;37.654;2023-04-22T04:55:48;99061.66;;;17.93;31.34
50672;BME280;46021;55.882;37.654;2023-04-22T04:58:25;99066.56;;;18.35;30.79
50672;BME280;46021;55.882;37.654;2023-04-22T05:01:07;99068.09;;;18.26;30.51
50672;BME280;46021;55.882;37.654;2023-04-22T05:03:34;99061.28;;;18.70;30.46
50672;BME280;46021;55.882;37.654;2023-04-22T05:06:03;99068.72;;;19.12;30.17
50672;BME280;46021;55.882;37.654;2023-04-22T05:08:30;99076.78;;;19.67;29.87
50672;BME280;46021;55.882;37.654;2023-04-22T05:11:04;99072.59;;;19.64;28.86
50672;BME280;46021;55.882;37.654;2023-04-22T05:13:32;99073.38;;;20.10;29.13
50672;BME280;46021;55.882;37.654;2023-04-22T05:16:00;99076.06;;;19.99;28.02
50672;BME280;46021;55.882;37.654;2023-04-22T05:18:27;99074.84;;;19.92;28.31
50672;BME280;46021;55.882;37.654;2023-04-22T05:20:57;99076.19;;;20.30;28.22
50672;BME280;46021;55.882;37.654;2023-04-22T05:23:25;99075.44;;;20.92;28.17
50672;BME280;46021;55.882;37.654;2023-04-22T05:25:54;99074.44;;;21.66;27.14
50672;BME280;46021;55.882;37.654;2023-04-22T05:28:22;99072.63;;;22.27;26.88
50672;BME280;46021;55.882;37.654;2023-04-22T05:30:55;99077.38;;;22.72;26.22
50672;BME280;46021;55.882;37.654;2023-04-22T05:33:22;99075.72;;;22.71;25.19
50672;BME280;46021;55.882;37.654;2023-04-22T05:35:49;99060.28;;;22.94;25.50
50672;BME280;46021;55.882;37.654;2023-04-22T05:38:17;99080.88;;;23.49;25.40
50672;BME280;46021;55.882;37.654;2023-04-22T05:40:45;99077.94;;;23.05;24.95
50672;BME280;46021;55.882;37.654;2023-04-22T05:43:14;99080.63;;;23.32;25.32
50672;BME280;46021;55.882;37.654;2023-04-22T05:45:45;99076.72;;;23.64;24.82
50672;BME280;46021;55.882;37.654;2023-04-22T05:48:15;99081.91;;;23.66;24.14
50672;BME280;46021;55.882;37.654;2023-04-22T05:50:53;99069.78;;;23.16;24.04
50672;BME280;46021;55.882;37.654;2023-04-22T05:53:20;99078.47;;;23.18;24.00
50672;BME280;46021;55.882;37.654;2023-04-22T05:55:47;99084.09;;;22.56;24.06
50672;BME280;46021;55.882;37.654;2023-04-22T05:58:14;99092.88;;;19.86;25.80
50672;BME280;46021;55.882;37.654;2023-04-22T06:00:49;99073.94;;;17.69;27.30
50672;BME280;46021;55.882;37.654;2023-04-22T06:03:38;99096.50;;;16.16;29.21
50672;BME280;46021;55.882;37.654;2023-04-22T06:06:06;99096.22;;;15.50;29.51
50672;BME280;46021;55.882;37.654;2023-04-22T06:08:33;99094.00;;;14.85;30.31
50672;BME280;46021;55.882;37.654;2023-04-22T06:11:00;99087.38;;;14.48;30.95
50672;BME280;46021;55.882;37.654;2023-04-22T06:13:30;99086.94;;;14.09;31.56
50672;BME280;46021;55.882;37.654;2023-04-22T06:15:57;99089.09;;;13.53;33.33
50672;BME280;46021;55.882;37.654;2023-04-22T06:18:25;99086.88;;;13.45;32.36
50672;BME280;46021;55.882;37.654;2023-04-22T06:20:54;99085.31;;;13.25;32.55
50672;BME280;46021;55.882;37.654;2023-04-22T06:23:21;99090.59;;;13.08;32.82
50672;BME280;46021;55.882;37.654;2023-04-22T06:25:48;99087.22;;;12.71;34.00
50672;BME280;46021;55.882;37.654;2023-04-22T06:28:16;99088.59;;;12.61;34.94
50672;BME280;46021;55.882;37.654;2023-04-22T06:30:44;99081.34;;;12.48;34.44
50672;BME280;46021;55.882;37.654;2023-04-22T06:33:11;99083.78;;;12.34;35.45
50672;BME280;46021;55.882;37.654;2023-04-22T06:35:38;99088.84;;;12.20;35.91
50672;BME280;46021;55.882;37.654;2023-04-22T06:38:07;99082.22;;;12.13;36.76
50672;BME280;46021;55.882;37.654;2023-04-22T06:40:42;99072.81;;;11.91;37.38
50672;BME280;46021;55.882;37.654;2023-04-22T06:43:22;99083.78;;;11.98;36.45
50672;BME280;46021;55.882;37.654;2023-04-22T06:46:18;99076.31;;;11.90;36.98
50672;BME280;46021;55.882;37.654;2023-04-22T06:48:51;99077.03;;;11.94;36.55
50672;BME280;46021;55.882;37.654;2023-04-22T06:51:38;99079.75;;;12.09;36.16
50672;BME280;46021;55.882;37.654;2023-04-22T06:54:07;99077.72;;;12.34;37.01
50672;BME280;46021;55.882;37.654;2023-04-22T06:56:34;99059.59;;;12.65;35.53
50672;BME280;46021;55.882;37.654;2023-04-22T06:59:01;99056.19;;;12.98;35.36
50672;BME280;46021;55.882;37.654;2023-04-22T07:01:29;99058.28;;;13.25;35.40
50672;BME280;46021;55.882;37.654;2023-04-22T07:03:56;99071.72;;;13.52;35.28
50672;BME280;46021;55.882;37.654;2023-04-22T07:06:23;99069.31;;;13.48;35.20
50672;BME280;46021;55.882;37.654;2023-04-22T07:08:51;99062.91;;;13.37;34.69
50672;BME280;46021;55.882;37.654;2023-04-22T07:11:19;99073.97;;;13.25;35.62
50672;BME280;46021;55.882;37.654;2023-04-22T07:14:07;99071.31;;;13.09;35.54
50672;BME280;46021;55.882;37.654;2023-04-22T07:16:34;99073.50;;;13.01;35.50
50672;BME280;46021;55.882;37.654;2023-04-22T07:19:03;99073.13;;;12.91;35.86
50672;BME280;46021;55.882;37.654;2023-04-22T07:21:30;99080.13;;;12.91;35.84
50672;BME280;46021;55.882;37.654;2023-04-22T07:23:58;99072.13;;;12.94;35.96
50672;BME280;46021;55.882;37.654;2023-04-22T07:26:26;99081.34;;;13.01;35.62
50672;BME280;46021;55.882;37.654;2023-04-22T07:28:56;99077.03;;;13.00;35.70
50672;BME280;46021;55.882;37.654;2023-04-22T07:31:23;99060.03;;;13.09;35.63
50672;BME280;46021;55.882;37.654;2023-04-22T07:33:50;99069.75;;;13.22;35.09
50672;BME280;46021;55.882;37.654;2023-04-22T07:36:17;99071.28;;;13.26;35.45
50672;BME280;46021;55.882;37.654;2023-04-22T07:38:44;99076.25;;;13.33;35.25
50672;BME280;46021;55.882;37.654;2023-04-22T07:41:11;99070.94;;;13.17;35.08
50672;BME280;46021;55.882;37.654;2023-04-22T07:43:40;99076.81;;;13.04;35.51
50672;BME280;46021;55.882;37.654;2023-04-22T07:46:07;99076.88;;;13.03;35.34
50672;BME280;46021;55.882;37.654;2023-04-22T07:48:35;99068.44;;;12.80;34.92
50672;BME280;46021;55.882;37.654;2023-04-22T07:51:02;99073.34;;;12.86;35.26
50672;BME280;46021;55.882;37.654;2023-04-22T07:53:29;99067.53;;;13.15;35.53
50672;BME280;46021;55.882;37.654;2023-04-22T07:55:56;99068.16;;;13.53;34.95
50672;BME280;46021;55.882;37.654;2023-04-22T07:58:24;99061.25;;;14.00;35.11
50672;BME280;46021;55.882;37.654;2023-04-22T08:00:52;99067.81;;;14.23;34.21
50672;BME280;46021;55.882;37.654;2023-04-22T08:03:19;99072.38;;;14.35;33.26
50672;BME280;46021;55.882;37.654;2023-04-22T08:05:46;99077.38;;;14.24;33.13
50672;BME280;46021;55.882;37.654;2023-04-22T08:08:14;99070.34;;;14.24;33.38
50672;BME280;46021;55.882;37.654;2023-04-22T08:10:41;99073.47;;;14.15;33.77
50672;BME280;46021;55.882;37.654;2023-04-22T08:13:08;99083.22;;;14.13;33.70
50672;BME280;46021;55.882;37.654;2023-04-22T08:15:35;99082.03;;;14.19;33.59
50672;BME280;46021;55.882;37.654;2023-04-22T08:18:04;99075.09;;;14.18;33.84
50672;BME280;46021;55.882;37.654;2023-04-22T08:20:31;99077.19;;;14.27;33.92
50672;BME280;46021;55.882;37.654;2023-04-22T08:22:58;99077.09;;;14.45;33.61
50672;BME280;46021;55.882;37.654;2023-04-22T08:25:26;99073.31;;;14.65;33.65
50672;BME280;46021;55.882;37.654;2023-04-22T08:27:53;99069.84;;;14.64;33.23
50672;BME280;46021;55.882;37.654;2023-04-22T08:30:20;99071.94;;;14.73;33.14
50672;BME280;46021;55.882;37.654;2023-04-22T08:32:47;99081.81;;;14.54;33.13
50672;BME280;46021;55.882;37.654;2023-04-22T08:35:16;99072.00;;;14.41;32.55
50672;BME280;46021;55.882;37.654;2023-04-22T08:37:43;99066.75;;;14.41;32.66
50672;BME280;46021;55.882;37.654;2023-04-22T08:40:10;99076.81;;;14.49;32.93
50672;BME280;46021;55.882;37.654;2023-04-22T08:42:38;99079.44;;;14.49;32.43
50672;BME280;46021;55.882;37.654;2023-04-22T08:45:06;99082.22;;;14.62;32.80
50672;BME280;46021;55.882;37.654;2023-04-22T08:47:34;99081.81;;;14.54;32.43
50672;BME280;46021;55.882;37.654;2023-04-22T08:50:04;99070.28;;;14.56;32.41
50672;BME280;46021;55.882;37.654;2023-04-22T08:52:33;99075.00;;;14.96;32.78
50672;BME280;46021;55.882;37.654;2023-04-22T08:55:00;99068.72;;;16.12;33.13
50672;BME280;46021;55.882;37.654;2023-04-22T08:57:31;99063.38;;;17.95;31.23
50672;BME280;46021;55.882;37.654;2023-04-22T08:59:58;99066.34;;;19.77;29.08
50672;BME280;46021;55.882;37.654;2023-04-22T09:02:26;99049.69;;;21.25;26.73
50672;BME280;46021;55.882;37.654;2023-04-22T09:04:54;99047.75;;;22.67;25.38
50672;BME280;46021;55.882;37.654;2023-04-22T09:07:23;99042.78;;;23.86;24.33
50672;BME280;46021;55.882;37.654;2023-04-22T09:09:53;99034.97;;;24.56;22.80
50672;BME280;46021;55.882;37.654;2023-04-22T09:12:21;99047.03;;;25.39;22.13
50672;BME280;46021;55.882;37.654;2023-04-22T09:14:48;99055.34;;;26.45;20.88
50672;BME280;46021;55.882;37.654;2023-04-22T09:17:15;99041.34;;;26.60;21.10
50672;BME280;46021;55.882;37.654;2023-04-22T09:19:43;99048.94;;;27.29;20.65
50672;BME280;46021;55.882;37.654;2023-04-22T09:22:11;99042.13;;;25.68;20.31
50672;BME280;46021;55.882;37.654;2023-04-22T09:24:42;99044.34;;;23.41;21.57
50672;BME280;46021;55.882;37.654;2023-04-22T09:27:12;99052.16;;;21.88;22.64
50672;BME280;46021;55.882;37.654;2023-04-22T09:29:47;99058.81;;;20.48;23.45
50672;BME280;46021;55.882;37.654;2023-04-22T09:32:14;99063.69;;;19.65;24.66
50672;BME280;46021;55.882;37.654;2023-04-22T09:34:48;99058.78;;;19.27;24.39
50672;BME280;46021;55.882;37.654;2023-04-22T09:37:18;99052.16;;;18.75;25.24
50672;BME280;46021;55.882;37.654;2023-04-22T09:39:47;99054.22;;;18.11;26.08
50672;BME280;46021;55.882;37.654;2023-04-22T09:42:16;99053.56;;;17.84;26.20
50672;BME280;46021;55.882;37.654;2023-04-22T09:44:44;99048.44;;;18.30;27.68
50672;BME280;46021;55.882;37.654;2023-04-22T09:47:13;99045.56;;;19.61;26.36
50672;BME280;46021;55.882;37.654;2023-04-22T09:49:44;99039.06;;;21.46;23.94
50672;BME280;46021;55.882;37.654;2023-04-22T09:52:19;99044.59;;;23.20;22.29
50672;BME280;46021;55.882;37.654;2023-04-22T09:54:49;99044.06;;;24.18;21.76
50672;BME280;46021;55.882;37.654;2023-04-22T09:57:19;99024.06;;;24.67;20.57
50672;BME280;46021;55.882;37.654;2023-04-22T09:59:49;99024.84;;;24.24;20.39
50672;BME280;46021;55.882;37.654;2023-04-22T10:02:16;99030.00;;;23.89;20.44
50672;BME280;46021;55.882;37.654;2023-04-22T10:04:43;99028.78;;;23.74;21.09
50672;BME280;46021;55.882;37.654;2023-04-22T10:07:12;99027.63;;;24.04;21.20
50672;BME280;46021;55.882;37.654;2023-04-22T10:09:40;99023.31;;;24.57;20.89
50672;BME280;46021;55.882;37.654;2023-04-22T10:12:07;99028.16;;;24.08;19.81
50672;BME280;46021;55.882;37.654;2023-04-22T10:14:36;99030.47;;;24.39;20.78
50672;BME280;46021;55.882;37.654;2023-04-22T10:17:04;99033.06;;;25.53;20.65
50672;BME280;46021;55.882;37.654;2023-04-22T10:19:32;99029.34;;;25.46;20.13
50672;BME280;46021;55.882;37.654;2023-04-22T10:22:02;99025.44;;;25.24;19.78
50672;BME280;46021;55.882;37.654;2023-04-22T10:24:35;99028.47;;;25.72;19.70
50672;BME280;46021;55.882;37.654;2023-04-22T10:27:03;99036.94;;;26.59;19.14
50672;BME280;46021;55.882;37.654;2023-04-22T10:29:39;99027.44;;;26.56;18.21
50672;BME280;46021;55.882;37.654;2023-04-22T10:32:23;99033.34;;;25.42;18.93
50672;BME280;46021;55.882;37.654;2023-04-22T10:35:08;99032.41;;;25.94;18.35
50672;BME280;46021;55.882;37.654;2023-04-22T10:37:35;99018.56;;;26.80;18.80
50672;BME280;46021;55.882;37.654;2023-04-22T10:40:09;99016.91;;;26.30;17.61
50672;BME280;46021;55.882;37.654;2023-04-22T10:42:39;99024.25;;;26.69;17.81
50672;BME280;46021;55.882;37.654;2023-04-22T10:45:11;99017.56;;;26.08;17.59
50672;BME280;46021;55.882;37.654;2023-04-22T10:47:39;99020.53;;;25.96;18.27
50672;BME280;46021;55.882;37.654;2023-04-22T10:50:12;99014.25;;;26.71;17.57
50672;BME280;46021;55.882;37.654;2023-04-22T10:52:42;99028.41;;;27.52;17.40
50672;BME280;46021;55.882;37.654;2023-04-22T10:55:09;99023.72;;;27.63;16.73
50672;BME280;46021;55.882;37.654;2023-04-22T10:57:38;99015.88;;;26.06;16.80
50672;BME280;46021;55.882;37.654;2023-04-22T11:00:26;99023.38;;;23.66;17.91
50672;BME280;46021;55.882;37.654;2023-04-22T11:03:06;99021.19;;;22.08;19.43
50672;BME280;46021;55.882;37.654;2023-04-22T11:05:34;99016.88;;;20.64;20.74
50672;BME280;46021;55.882;37.654;2023-04-22T11:08:03;99030.00;;;20.22;20.84
50672;BME280;46021;55.882;37.654;2023-04-22T11:10:37;99030.63;;;19.82;21.20
50672;BME280;46021;55.882;37.654;2023-04-22T11:13:10;99021.78;;;20.37;22.12
50672;BME280;46021;55.882;37.654;2023-04-22T11:15:41;99021.13;;;21.79;21.02
50672;BME280;46021;55.882;37.654;2023-04-22T11:18:11;99012.78;;;22.71;20.43
50672;BME280;46021;55.882;37.654;2023-04-22T11:20:39;99023.78;;;23.43;20.02
50672;BME280;46021;55.882;37.654;2023-04-22T11:23:06;99011.63;;;22.93;19.63
50672;BME280;46021;55.882;37.654;2023-04-22T11:25:33;99006.00;;;22.30;19.80
50672;BME280;46021;55.882;37.654;2023-04-22T11:28:00;99006.84;;;23.07;19.84
50672;BME280;46021;55.882;37.654;2023-04-22T11:30:28;99009.81;;;23.87;19.49
50672;BME280;46021;55.882;37.654;2023-04-22T11:32:59;99002.69;;;24.05;19.06
50672;BME280;46021;55.882;37.654;2023-04-22T11:35:28;99002.91;;;24.12;18.89
50672;BME280;46021;55.882;37.654;2023-04-22T11:37:57;98999.16;;;24.59;19.06
50672;BME280;46021;55.882;37.654;2023-04-22T11:40:27;99002.38;;;24.44;18.42
50672;BME280;46021;55.882;37.654;2023-04-22T11:42:55;99015.94;;;23.97;18.90
50672;BME280;46021;55.882;37.654;2023-04-22T11:45:23;99009.75;;;23.79;19.55
50672;BME280;46021;55.882;37.654;2023-04-22T11:47:51;99011.06;;;24.10;19.09
50672;BME280;46021;55.882;37.654;2023-04-22T11:50:22;99011.88;;;23.93;18.61
50672;BME280;46021;55.882;37.654;2023-04-22T11:52:52;99016.91;;;23.68;18.88
50672;BME280;46021;55.882;37.654;2023-04-22T11:55:22;99007.16;;;23.87;18.54
50672;BME280;46021;55.882;37.654;2023-04-22T11:57:55;98998.09;;;23.24;18.81
50672;BME280;46021;55.882;37.654;2023-04-22T12:00:23;98991.47;;;23.01;19.56
50672;BME280;46021;55.882;37.654;2023-04-22T12:02:55;99004.50;;;23.31;19.61
50672;BME280;46021;55.882;37.654;2023-04-22T12:05:33;98997.59;;;23.11;19.68
50672;BME280;46021;55.882;37.654;2023-04-22T12:08:02;99005.13;;;23.15;19.48
50672;BME280;46021;55.882;37.654;2023-04-22T12:10:29;99001.31;;;23.55;19.82
50672;BME280;46021;55.882;37.654;2023-04-22T12:12:56;99002.78;;;23.96;19.16
50672;BME280;46021;55.882;37.654;2023-04-22T12:15:23;99000.41;;;24.10;19.05
50672;BME280;46021;55.882;37.654;2023-04-22T12:17:50;98997.41;;;23.22;18.99
50672;BME280;46021;55.882;37.654;2023-04-22T12:20:18;98991.97;;;22.67;19.31
50672;BME280;46021;55.882;37.654;2023-04-22T12:22:46;98999.28;;;22.35;19.51
50672;BME280;46021;55.882;37.654;2023-04-22T12:25:17;98999.34;;;21.85;20.28
50672;BME280;46021;55.882;37.654;2023-04-22T12:27:44;98992.56;;;22.41;19.94
50672;BME280;46021;55.882;37.654;2023-04-22T12:30:13;98987.75;;;22.74;19.97
50672;BME280;46021;55.882;37.654;2023-04-22T12:32:41;98980.84;;;22.91;19.47
50672;BME280;46021;55.882;37.654;2023-04-22T12:35:08;98976.41;;;22.82;19.20
50672;BME280;46021;55.882;37.654;2023-04-22T12:37:35;98977.72;;;22.19;19.37
50672;BME280;46021;55.882;37.654;2023-04-22T12:40:07;98993.38;;;21.42;19.98
50672;BME280;46021;55.882;37.654;2023-04-22T12:42:35;98982.38;;;21.07;20.48
50672;BME280;46021;55.882;37.654;2023-04-22T12:45:03;98979.44;;;20.79;21.28
50672;BME280;46021;55.882;37.654;2023-04-22T12:47:33;98982.72;;;20.92;20.62
50672;BME280;46021;55.882;37.654;2023-04-22T12:50:00;98986.97;;;21.05;21.04
50672;BME280;46021;55.882;37.654;2023-04-22T12:52:32;98984.69;;;21.21;20.69
50672;BME280;46021;55.882;37.654;2023-04-22T12:54:59;98980.22;;;21.31;21.57
50672;BME280;46021;55.882;37.654;2023-04-22T12:57:31;98974.69;;;21.34;20.78
50672;BME280;46021;55.882;37.654;2023-04-22T12:59:58;98983.94;;;21.19;20.78
50672;BME280;46021;55.882;37.654;2023-04-22T13:02:25;98974.75;;;20.92;20.50